sensor_id;sensor_type;location;lat;lon;timestamp;temperature;humidity
4501;DHT22;2263;54.654;9.410;2022-09-09T00:06:43;16.30;81.10
4501;DHT22;2263;54.654;9.410;2022-09-09T00:09:17;16.30;81.00
4501;DHT22;2263;54.654;9.410;2022-09-09T00:12:23;16.30;81.10
4501;DHT22;2263;54.654;9.410;2022-09-09T00:15:18;16.30;81.30
4501;DHT22;2263;54.654;9.410;2022-09-09T00:18:03;16.30;81.20
4501;DHT22;2263;54.654;9.410;2022-09-09T00:20:39;16.30;81.00
4501;DHT22;2263;54.654;9.410;2022-09-09T00:29:26;16.30;81.20
4501;DHT22;2263;54.654;9.410;2022-09-09T00:32:16;16.30;81.00
4501;DHT22;2263;54.654;9.410;2022-09-09T00:35:12;16.30;81.20
4501;DHT22;2263;54.654;9.410;2022-09-09T00:37:44;16.30;81.30
4501;DHT22;2263;54.654;9.410;2022-09-09T00:40:35;16.30;81.10
4501;DHT22;2263;54.654;9.410;2022-09-09T00:46:18;16.30;81.10
4501;DHT22;2263;54.654;9.410;2022-09-09T00:57:32;16.30;81.00
4501;DHT22;2263;54.654;9.410;2022-09-09T01:10:51;16.30;80.90
4501;DHT22;2263;54.654;9.410;2022-09-09T01:13:29;16.30;81.00
4501;DHT22;2263;54.654;9.410;2022-09-09T01:16:01;16.30;81.10
4501;DHT22;2263;54.654;9.410;2022-09-09T01:18:33;16.30;81.10
4501;DHT22;2263;54.654;9.410;2022-09-09T01:21:08;16.30;81.20
4501;DHT22;2263;54.654;9.410;2022-09-09T01:24:13;16.30;81.00
4501;DHT22;2263;54.654;9.410;2022-09-09T01:26:44;16.30;81.00
4501;DHT22;2263;54.654;9.410;2022-09-09T01:29:14;16.30;81.00
4501;DHT22;2263;54.654;9.410;2022-09-09T01:32:35;16.30;81.00
4501;DHT22;2263;54.654;9.410;2022-09-09T01:34:50;16.30;81.00
4501;DHT22;2263;54.654;9.410;2022-09-09T01:37:18;16.30;81.10
4501;DHT22;2263;54.654;9.410;2022-09-09T01:39:45;16.30;81.20
4501;DHT22;2263;54.654;9.410;2022-09-09T01:42:15;16.30;81.20
4501;DHT22;2263;54.654;9.410;2022-09-09T01:44:43;16.20;81.10
4501;DHT22;2263;54.654;9.410;2022-09-09T01:47:10;16.30;81.20
4501;DHT22;2263;54.654;9.410;2022-09-09T01:49:40;16.30;81.20
4501;DHT22;2263;54.654;9.410;2022-09-09T01:52:07;16.30;81.30
4501;DHT22;2263;54.654;9.410;2022-09-09T01:54:35;16.20;81.10
4501;DHT22;2263;54.654;9.410;2022-09-09T01:57:18;16.30;81.10
4501;DHT22;2263;54.654;9.410;2022-09-09T02:02:49;16.20;81.10
4501;DHT22;2263;54.654;9.410;2022-09-09T02:08:09;16.20;81.00
4501;DHT22;2263;54.654;9.410;2022-09-09T02:10:59;16.20;81.10
4501;DHT22;2263;54.654;9.410;2022-09-09T02:13:32;16.20;81.00
4501;DHT22;2263;54.654;9.410;2022-09-09T02:18:57;16.20;81.20
4501;DHT22;2263;54.654;9.410;2022-09-09T02:21:29;16.20;81.10
4501;DHT22;2263;54.654;9.410;2022-09-09T02:23:59;16.20;81.10
4501;DHT22;2263;54.654;9.410;2022-09-09T02:26:28;16.20;81.10
4501;DHT22;2263;54.654;9.410;2022-09-09T02:28:58;16.20;81.20
4501;DHT22;2263;54.654;9.410;2022-09-09T02:31:26;16.20;81.30
4501;DHT22;2263;54.654;9.410;2022-09-09T02:33:59;16.20;81.10
4501;DHT22;2263;54.654;9.410;2022-09-09T02:36:31;16.20;81.20
4501;DHT22;2263;54.654;9.410;2022-09-09T02:39:01;16.20;81.00
4501;DHT22;2263;54.654;9.410;2022-09-09T02:41:33;16.20;81.20
4501;DHT22;2263;54.654;9.410;2022-09-09T02:44:00;16.20;81.10
4501;DHT22;2263;54.654;9.410;2022-09-09T02:54:19;16.20;81.20
4501;DHT22;2263;54.654;9.410;2022-09-09T02:56:52;16.20;81.20
4501;DHT22;2263;54.654;9.410;2022-09-09T02:59:21;16.20;81.30
4501;DHT22;2263;54.654;9.410;2022-09-09T03:01:49;16.20;81.30
4501;DHT22;2263;54.654;9.410;2022-09-09T03:04:16;16.20;81.40
4501;DHT22;2263;54.654;9.410;2022-09-09T03:06:43;16.20;81.30
4501;DHT22;2263;54.654;9.410;2022-09-09T03:09:11;16.20;81.30
4501;DHT22;2263;54.654;9.410;2022-09-09T03:11:38;16.20;81.60
4501;DHT22;2263;54.654;9.410;2022-09-09T03:14:05;16.20;81.60
4501;DHT22;2263;54.654;9.410;2022-09-09T03:16:33;16.20;81.60
4501;DHT22;2263;54.654;9.410;2022-09-09T03:19:01;16.20;81.80
4501;DHT22;2263;54.654;9.410;2022-09-09T03:21:28;16.20;81.60
4501;DHT22;2263;54.654;9.410;2022-09-09T03:23:55;16.20;81.70
4501;DHT22;2263;54.654;9.410;2022-09-09T03:26:24;16.20;82.00
4501;DHT22;2263;54.654;9.410;2022-09-09T03:28:51;16.20;81.90
4501;DHT22;2263;54.654;9.410;2022-09-09T03:31:19;16.20;81.90
4501;DHT22;2263;54.654;9.410;2022-09-09T03:33:49;16.20;81.80
4501;DHT22;2263;54.654;9.410;2022-09-09T03:36:17;16.20;81.90
4501;DHT22;2263;54.654;9.410;2022-09-09T03:38:44;16.20;82.30
4501;DHT22;2263;54.654;9.410;2022-09-09T03:41:11;16.20;82.10
4501;DHT22;2263;54.654;9.410;2022-09-09T03:43:39;16.20;82.20
4501;DHT22;2263;54.654;9.410;2022-09-09T03:46:06;16.20;82.00
4501;DHT22;2263;54.654;9.410;2022-09-09T03:48:34;16.20;82.10
4501;DHT22;2263;54.654;9.410;2022-09-09T03:51:01;16.20;82.10
4501;DHT22;2263;54.654;9.410;2022-09-09T03:53:29;16.20;82.40
4501;DHT22;2263;54.654;9.410;2022-09-09T03:55:57;16.20;82.20
4501;DHT22;2263;54.654;9.410;2022-09-09T03:58:30;16.20;82.10
4501;DHT22;2263;54.654;9.410;2022-09-09T04:00:59;16.20;82.10
4501;DHT22;2263;54.654;9.410;2022-09-09T04:03:27;16.20;82.20
4501;DHT22;2263;54.654;9.410;2022-09-09T04:05:57;16.20;82.30
4501;DHT22;2263;54.654;9.410;2022-09-09T04:08:25;16.20;82.30
4501;DHT22;2263;54.654;9.410;2022-09-09T04:10:55;16.20;82.30
4501;DHT22;2263;54.654;9.410;2022-09-09T04:13:25;16.20;82.10
4501;DHT22;2263;54.654;9.410;2022-09-09T04:15:54;16.20;82.30
4501;DHT22;2263;54.654;9.410;2022-09-09T04:18:22;16.20;82.30
4501;DHT22;2263;54.654;9.410;2022-09-09T04:20:51;16.20;82.20
4501;DHT22;2263;54.654;9.410;2022-09-09T04:23:19;16.20;82.30
4501;DHT22;2263;54.654;9.410;2022-09-09T04:25:48;16.20;82.30
4501;DHT22;2263;54.654;9.410;2022-09-09T04:28:17;16.20;82.40
4501;DHT22;2263;54.654;9.410;2022-09-09T04:30:45;16.20;82.30
4501;DHT22;2263;54.654;9.410;2022-09-09T04:33:14;16.20;82.40
4501;DHT22;2263;54.654;9.410;2022-09-09T04:35:46;16.20;82.40
4501;DHT22;2263;54.654;9.410;2022-09-09T04:38:15;16.20;82.30
4501;DHT22;2263;54.654;9.410;2022-09-09T04:40:50;16.20;82.40
4501;DHT22;2263;54.654;9.410;2022-09-09T04:43:18;16.20;82.40
4501;DHT22;2263;54.654;9.410;2022-09-09T04:45:50;16.20;82.70
4501;DHT22;2263;54.654;9.410;2022-09-09T04:48:19;16.20;82.40
4501;DHT22;2263;54.654;9.410;2022-09-09T04:50:57;16.10;82.20
4501;DHT22;2263;54.654;9.410;2022-09-09T04:53:25;16.20;82.40
4501;DHT22;2263;54.654;9.410;2022-09-09T04:56:00;16.10;82.10
4501;DHT22;2263;54.654;9.410;2022-09-09T04:58:28;16.20;82.40
4501;DHT22;2263;54.654;9.410;2022-09-09T05:01:02;16.20;82.30
4501;DHT22;2263;54.654;9.410;2022-09-09T05:03:29;16.10;82.10
4501;DHT22;2263;54.654;9.410;2022-09-09T05:06:09;16.10;82.30
4501;DHT22;2263;54.654;9.410;2022-09-09T05:08:38;16.10;82.30
4501;DHT22;2263;54.654;9.410;2022-09-09T05:13:42;16.20;82.00
4501;DHT22;2263;54.654;9.410;2022-09-09T05:16:10;16.10;82.20
4501;DHT22;2263;54.654;9.410;2022-09-09T05:18:38;16.10;82.10
4501;DHT22;2263;54.654;9.410;2022-09-09T05:21:06;16.10;82.10
4501;DHT22;2263;54.654;9.410;2022-09-09T05:23:34;16.10;82.20
4501;DHT22;2263;54.654;9.410;2022-09-09T05:26:02;16.10;82.40
4501;DHT22;2263;54.654;9.410;2022-09-09T05:28:30;16.10;82.30
4501;DHT22;2263;54.654;9.410;2022-09-09T05:31:01;16.10;82.30
4501;DHT22;2263;54.654;9.410;2022-09-09T05:33:31;16.10;82.10
4501;DHT22;2263;54.654;9.410;2022-09-09T05:36:05;16.10;82.10
4501;DHT22;2263;54.654;9.410;2022-09-09T05:38:33;16.10;82.40
4501;DHT22;2263;54.654;9.410;2022-09-09T05:41:01;16.10;82.20
4501;DHT22;2263;54.654;9.410;2022-09-09T05:43:29;16.10;82.40
4501;DHT22;2263;54.654;9.410;2022-09-09T05:46:00;16.10;82.20
4501;DHT22;2263;54.654;9.410;2022-09-09T05:48:45;16.10;82.30
4501;DHT22;2263;54.654;9.410;2022-09-09T05:51:20;16.10;82.50
4501;DHT22;2263;54.654;9.410;2022-09-09T05:53:49;16.10;82.20
4501;DHT22;2263;54.654;9.410;2022-09-09T05:56:21;16.10;82.20
4501;DHT22;2263;54.654;9.410;2022-09-09T05:58:49;16.10;82.00
4501;DHT22;2263;54.654;9.410;2022-09-09T06:01:22;16.10;82.30
4501;DHT22;2263;54.654;9.410;2022-09-09T06:03:50;16.10;82.20
4501;DHT22;2263;54.654;9.410;2022-09-09T06:06:24;16.10;82.30
4501;DHT22;2263;54.654;9.410;2022-09-09T06:08:56;16.10;82.30
4501;DHT22;2263;54.654;9.410;2022-09-09T06:11:28;16.10;82.10
4501;DHT22;2263;54.654;9.410;2022-09-09T06:13:58;16.10;82.10
4501;DHT22;2263;54.654;9.410;2022-09-09T06:16:27;16.10;82.20
4501;DHT22;2263;54.654;9.410;2022-09-09T06:18:56;16.10;82.30
4501;DHT22;2263;54.654;9.410;2022-09-09T06:21:29;16.10;82.30
4501;DHT22;2263;54.654;9.410;2022-09-09T06:23:57;16.10;82.20
4501;DHT22;2263;54.654;9.410;2022-09-09T06:26:31;16.10;82.20
4501;DHT22;2263;54.654;9.410;2022-09-09T06:29:00;16.10;82.20
4501;DHT22;2263;54.654;9.410;2022-09-09T06:31:28;16.10;82.30
4501;DHT22;2263;54.654;9.410;2022-09-09T06:33:58;16.10;82.20
4501;DHT22;2263;54.654;9.410;2022-09-09T06:36:30;16.10;82.10
4501;DHT22;2263;54.654;9.410;2022-09-09T06:38:58;16.10;82.20
4501;DHT22;2263;54.654;9.410;2022-09-09T06:41:30;16.10;82.40
4501;DHT22;2263;54.654;9.410;2022-09-09T06:43:58;16.20;82.30
4501;DHT22;2263;54.654;9.410;2022-09-09T06:46:28;16.20;82.20
4501;DHT22;2263;54.654;9.410;2022-09-09T06:48:56;16.20;82.30
4501;DHT22;2263;54.654;9.410;2022-09-09T06:51:31;16.10;82.30
4501;DHT22;2263;54.654;9.410;2022-09-09T06:54:00;16.20;82.20
4501;DHT22;2263;54.654;9.410;2022-09-09T06:56:37;16.20;82.30
4501;DHT22;2263;54.654;9.410;2022-09-09T06:59:06;16.20;82.30
4501;DHT22;2263;54.654;9.410;2022-09-09T07:01:37;16.10;82.30
4501;DHT22;2263;54.654;9.410;2022-09-09T07:04:05;16.20;82.30
4501;DHT22;2263;54.654;9.410;2022-09-09T07:06:43;16.10;82.20
4501;DHT22;2263;54.654;9.410;2022-09-09T07:09:12;16.20;82.30
4501;DHT22;2263;54.654;9.410;2022-09-09T07:11:45;16.20;82.30
4501;DHT22;2263;54.654;9.410;2022-09-09T07:14:12;16.20;82.30
4501;DHT22;2263;54.654;9.410;2022-09-09T07:16:44;16.20;82.40
4501;DHT22;2263;54.654;9.410;2022-09-09T07:19:13;16.20;82.30
4501;DHT22;2263;54.654;9.410;2022-09-09T07:21:43;16.20;82.30
4501;DHT22;2263;54.654;9.410;2022-09-09T07:24:13;16.10;82.40
4501;DHT22;2263;54.654;9.410;2022-09-09T07:26:40;16.10;82.20
4501;DHT22;2263;54.654;9.410;2022-09-09T07:29:08;16.20;82.50
4501;DHT22;2263;54.654;9.410;2022-09-09T07:31:37;16.20;82.50
4501;DHT22;2263;54.654;9.410;2022-09-09T07:34:04;16.20;82.40
4501;DHT22;2263;54.654;9.410;2022-09-09T07:36:34;16.20;82.40
4501;DHT22;2263;54.654;9.410;2022-09-09T07:39:08;16.20;82.30
4501;DHT22;2263;54.654;9.410;2022-09-09T07:41:38;16.20;82.30
4501;DHT22;2263;54.654;9.410;2022-09-09T07:44:09;16.20;82.30
4501;DHT22;2263;54.654;9.410;2022-09-09T07:46:38;16.20;82.30
4501;DHT22;2263;54.654;9.410;2022-09-09T07:49:09;16.20;82.20
4501;DHT22;2263;54.654;9.410;2022-09-09T07:51:40;16.20;82.20
4501;DHT22;2263;54.654;9.410;2022-09-09T07:54:12;16.30;82.50
4501;DHT22;2263;54.654;9.410;2022-09-09T07:56:40;16.30;82.40
4501;DHT22;2263;54.654;9.410;2022-09-09T07:59:08;16.30;82.30
4501;DHT22;2263;54.654;9.410;2022-09-09T08:01:39;16.30;82.60
4501;DHT22;2263;54.654;9.410;2022-09-09T08:04:09;16.30;82.50
4501;DHT22;2263;54.654;9.410;2022-09-09T08:06:41;16.30;82.50
4501;DHT22;2263;54.654;9.410;2022-09-09T08:09:10;16.30;82.60
4501;DHT22;2263;54.654;9.410;2022-09-09T08:11:38;16.30;82.60
4501;DHT22;2263;54.654;9.410;2022-09-09T08:14:06;16.30;82.80
4501;DHT22;2263;54.654;9.410;2022-09-09T08:16:37;16.30;82.60
4501;DHT22;2263;54.654;9.410;2022-09-09T08:19:05;16.30;82.70
4501;DHT22;2263;54.654;9.410;2022-09-09T08:21:36;16.30;82.60
4501;DHT22;2263;54.654;9.410;2022-09-09T08:24:04;16.30;82.60
4501;DHT22;2263;54.654;9.410;2022-09-09T08:26:34;16.30;82.70
4501;DHT22;2263;54.654;9.410;2022-09-09T08:29:04;16.30;82.60
4501;DHT22;2263;54.654;9.410;2022-09-09T08:31:40;16.30;82.70
4501;DHT22;2263;54.654;9.410;2022-09-09T08:34:08;16.30;82.60
4501;DHT22;2263;54.654;9.410;2022-09-09T08:36:44;16.40;82.70
4501;DHT22;2263;54.654;9.410;2022-09-09T08:39:13;16.40;82.70
4501;DHT22;2263;54.654;9.410;2022-09-09T08:41:44;16.40;82.80
4501;DHT22;2263;54.654;9.410;2022-09-09T08:50:19;16.40;83.00
4501;DHT22;2263;54.654;9.410;2022-09-09T08:53:00;16.40;83.00
4501;DHT22;2263;54.654;9.410;2022-09-09T08:55:48;16.40;83.10
4501;DHT22;2263;54.654;9.410;2022-09-09T08:58:21;16.40;83.20
4501;DHT22;2263;54.654;9.410;2022-09-09T09:03:32;16.50;83.00
4501;DHT22;2263;54.654;9.410;2022-09-09T09:06:50;16.50;82.90
4501;DHT22;2263;54.654;9.410;2022-09-09T09:11:58;16.50;82.70
4501;DHT22;2263;54.654;9.410;2022-09-09T09:14:34;16.50;83.00
4501;DHT22;2263;54.654;9.410;2022-09-09T09:17:18;16.60;83.00
4501;DHT22;2263;54.654;9.410;2022-09-09T09:19:48;16.60;82.90
4501;DHT22;2263;54.654;9.410;2022-09-09T09:22:50;16.60;83.30
4501;DHT22;2263;54.654;9.410;2022-09-09T09:31:10;16.60;83.60
4501;DHT22;2263;54.654;9.410;2022-09-09T09:33:49;16.60;83.10
4501;DHT22;2263;54.654;9.410;2022-09-09T09:36:16;16.70;83.80
4501;DHT22;2263;54.654;9.410;2022-09-09T09:38:58;16.70;82.90
4501;DHT22;2263;54.654;9.410;2022-09-09T09:41:47;16.70;83.00
4501;DHT22;2263;54.654;9.410;2022-09-09T09:44:27;16.80;83.00
4501;DHT22;2263;54.654;9.410;2022-09-09T09:49:34;16.80;82.90
4501;DHT22;2263;54.654;9.410;2022-09-09T09:52:03;16.80;82.80
4501;DHT22;2263;54.654;9.410;2022-09-09T09:54:33;16.90;83.10
4501;DHT22;2263;54.654;9.410;2022-09-09T09:57:14;16.90;82.90
4501;DHT22;2263;54.654;9.410;2022-09-09T09:59:43;16.90;82.50
4501;DHT22;2263;54.654;9.410;2022-09-09T10:04:41;16.80;82.30
4501;DHT22;2263;54.654;9.410;2022-09-09T10:07:15;16.90;82.70
4501;DHT22;2263;54.654;9.410;2022-09-09T10:09:44;16.90;83.00
4501;DHT22;2263;54.654;9.410;2022-09-09T10:23:02;16.90;82.40
4501;DHT22;2263;54.654;9.410;2022-09-09T10:25:43;16.90;82.20
4501;DHT22;2263;54.654;9.410;2022-09-09T10:28:25;16.90;82.30
4501;DHT22;2263;54.654;9.410;2022-09-09T10:36:35;17.00;82.40
4501;DHT22;2263;54.654;9.410;2022-09-09T10:39:38;17.00;82.30
4501;DHT22;2263;54.654;9.410;2022-09-09T10:42:16;17.00;82.40
4501;DHT22;2263;54.654;9.410;2022-09-09T10:48:23;17.10;82.40
4501;DHT22;2263;54.654;9.410;2022-09-09T10:56:31;17.40;85.80
4501;DHT22;2263;54.654;9.410;2022-09-09T10:59:17;17.50;86.40
4501;DHT22;2263;54.654;9.410;2022-09-09T11:01:53;17.50;85.80
4501;DHT22;2263;54.654;9.410;2022-09-09T11:04:27;17.50;86.30
4501;DHT22;2263;54.654;9.410;2022-09-09T11:07:01;17.40;84.90
4501;DHT22;2263;54.654;9.410;2022-09-09T11:09:41;17.50;85.10
4501;DHT22;2263;54.654;9.410;2022-09-09T11:12:15;17.50;84.80
4501;DHT22;2263;54.654;9.410;2022-09-09T11:15:01;17.50;84.70
4501;DHT22;2263;54.654;9.410;2022-09-09T11:17:41;17.60;84.80
4501;DHT22;2263;54.654;9.410;2022-09-09T11:20:13;17.70;84.50
4501;DHT22;2263;54.654;9.410;2022-09-09T11:22:52;17.70;84.00
4501;DHT22;2263;54.654;9.410;2022-09-09T11:29:00;17.80;83.70
4501;DHT22;2263;54.654;9.410;2022-09-09T11:34:27;17.80;83.40
4501;DHT22;2263;54.654;9.410;2022-09-09T11:37:32;17.80;83.00
4501;DHT22;2263;54.654;9.410;2022-09-09T11:40:18;17.80;83.00
4501;DHT22;2263;54.654;9.410;2022-09-09T11:42:47;17.80;83.10
4501;DHT22;2263;54.654;9.410;2022-09-09T11:47:58;17.80;82.90
4501;DHT22;2263;54.654;9.410;2022-09-09T11:55:40;18.00;83.00
4501;DHT22;2263;54.654;9.410;2022-09-09T12:00:40;18.10;82.40
4501;DHT22;2263;54.654;9.410;2022-09-09T12:06:41;18.10;82.40
4501;DHT22;2263;54.654;9.410;2022-09-09T12:09:22;18.00;82.30
4501;DHT22;2263;54.654;9.410;2022-09-09T12:12:05;18.00;83.10
4501;DHT22;2263;54.654;9.410;2022-09-09T12:14:44;18.00;82.20
4501;DHT22;2263;54.654;9.410;2022-09-09T12:17:26;18.10;82.20
4501;DHT22;2263;54.654;9.410;2022-09-09T12:37:42;18.40;81.70
4501;DHT22;2263;54.654;9.410;2022-09-09T12:40:22;18.50;81.80
4501;DHT22;2263;54.654;9.410;2022-09-09T12:42:50;18.50;81.90
4501;DHT22;2263;54.654;9.410;2022-09-09T12:45:22;18.50;81.40
4501;DHT22;2263;54.654;9.410;2022-09-09T12:47:56;18.50;81.50
4501;DHT22;2263;54.654;9.410;2022-09-09T12:50:32;18.50;81.30
4501;DHT22;2263;54.654;9.410;2022-09-09T12:53:05;18.70;81.20
4501;DHT22;2263;54.654;9.410;2022-09-09T12:55:38;18.60;80.90
4501;DHT22;2263;54.654;9.410;2022-09-09T12:58:06;18.60;80.80
4501;DHT22;2263;54.654;9.410;2022-09-09T13:00:34;18.60;80.80
4501;DHT22;2263;54.654;9.410;2022-09-09T13:03:17;18.60;80.60
4501;DHT22;2263;54.654;9.410;2022-09-09T13:05:45;18.60;80.60
4501;DHT22;2263;54.654;9.410;2022-09-09T13:08:14;18.50;80.60
4501;DHT22;2263;54.654;9.410;2022-09-09T13:10:51;18.60;80.70
4501;DHT22;2263;54.654;9.410;2022-09-09T13:13:35;18.50;80.70
4501;DHT22;2263;54.654;9.410;2022-09-09T13:16:04;18.50;80.70
4501;DHT22;2263;54.654;9.410;2022-09-09T13:18:36;18.50;80.80
4501;DHT22;2263;54.654;9.410;2022-09-09T13:21:05;18.50;80.80
4501;DHT22;2263;54.654;9.410;2022-09-09T13:23:34;18.50;80.80
4501;DHT22;2263;54.654;9.410;2022-09-09T13:26:20;18.50;80.80
4501;DHT22;2263;54.654;9.410;2022-09-09T13:28:52;18.50;81.00
4501;DHT22;2263;54.654;9.410;2022-09-09T13:31:23;18.40;81.10
4501;DHT22;2263;54.654;9.410;2022-09-09T13:33:50;18.40;81.30
4501;DHT22;2263;54.654;9.410;2022-09-09T13:36:29;18.50;81.40
4501;DHT22;2263;54.654;9.410;2022-09-09T13:38:59;18.50;81.10
4501;DHT22;2263;54.654;9.410;2022-09-09T13:41:43;18.60;81.40
4501;DHT22;2263;54.654;9.410;2022-09-09T13:44:19;19.00;82.10
4501;DHT22;2263;54.654;9.410;2022-09-09T13:47:06;19.30;81.40
4501;DHT22;2263;54.654;9.410;2022-09-09T13:49:44;19.30;80.50
4501;DHT22;2263;54.654;9.410;2022-09-09T13:52:14;19.20;80.20
4501;DHT22;2263;54.654;9.410;2022-09-09T13:54:42;19.20;80.40
4501;DHT22;2263;54.654;9.410;2022-09-09T13:57:18;19.10;80.60
4501;DHT22;2263;54.654;9.410;2022-09-09T13:59:46;19.10;80.50
4501;DHT22;2263;54.654;9.410;2022-09-09T14:02:30;19.00;80.50
4501;DHT22;2263;54.654;9.410;2022-09-09T14:04:58;19.10;80.60
4501;DHT22;2263;54.654;9.410;2022-09-09T14:07:25;19.10;80.60
4501;DHT22;2263;54.654;9.410;2022-09-09T14:09:52;19.20;80.10
4501;DHT22;2263;54.654;9.410;2022-09-09T14:12:19;19.30;81.70
4501;DHT22;2263;54.654;9.410;2022-09-09T14:14:47;19.60;80.10
4501;DHT22;2263;54.654;9.410;2022-09-09T14:17:14;20.10;79.30
4501;DHT22;2263;54.654;9.410;2022-09-09T14:19:41;20.30;78.10
4501;DHT22;2263;54.654;9.410;2022-09-09T14:22:09;20.60;76.60
4501;DHT22;2263;54.654;9.410;2022-09-09T14:24:36;20.40;76.30
4501;DHT22;2263;54.654;9.410;2022-09-09T14:27:04;20.20;77.20
4501;DHT22;2263;54.654;9.410;2022-09-09T14:29:31;20.00;77.60
4501;DHT22;2263;54.654;9.410;2022-09-09T14:32:02;19.80;77.80
4501;DHT22;2263;54.654;9.410;2022-09-09T14:34:30;19.80;78.10
4501;DHT22;2263;54.654;9.410;2022-09-09T14:36:59;19.70;78.20
4501;DHT22;2263;54.654;9.410;2022-09-09T14:39:26;19.60;78.20
4501;DHT22;2263;54.654;9.410;2022-09-09T14:41:53;19.60;78.30
4501;DHT22;2263;54.654;9.410;2022-09-09T14:44:20;19.50;79.00
4501;DHT22;2263;54.654;9.410;2022-09-09T14:46:49;19.50;78.40
4501;DHT22;2263;54.654;9.410;2022-09-09T14:49:20;19.50;78.40
4501;DHT22;2263;54.654;9.410;2022-09-09T14:51:47;19.50;78.40
4501;DHT22;2263;54.654;9.410;2022-09-09T14:54:14;19.40;78.40
4501;DHT22;2263;54.654;9.410;2022-09-09T14:56:42;19.40;78.40
4501;DHT22;2263;54.654;9.410;2022-09-09T14:59:09;19.40;78.50
4501;DHT22;2263;54.654;9.410;2022-09-09T15:01:37;19.40;78.60
4501;DHT22;2263;54.654;9.410;2022-09-09T15:04:05;19.40;77.70
4501;DHT22;2263;54.654;9.410;2022-09-09T15:06:35;19.40;78.20
4501;DHT22;2263;54.654;9.410;2022-09-09T15:09:05;19.30;78.40
4501;DHT22;2263;54.654;9.410;2022-09-09T15:11:36;19.30;79.50
4501;DHT22;2263;54.654;9.410;2022-09-09T15:14:06;19.30;81.10
4501;DHT22;2263;54.654;9.410;2022-09-09T15:16:34;19.30;81.60
4501;DHT22;2263;54.654;9.410;2022-09-09T15:19:02;19.20;81.40
4501;DHT22;2263;54.654;9.410;2022-09-09T15:21:32;19.30;81.40
4501;DHT22;2263;54.654;9.410;2022-09-09T15:24:00;19.30;81.90
4501;DHT22;2263;54.654;9.410;2022-09-09T15:26:27;19.30;81.60
4501;DHT22;2263;54.654;9.410;2022-09-09T15:28:56;19.20;81.90
4501;DHT22;2263;54.654;9.410;2022-09-09T15:31:28;19.20;81.90
4501;DHT22;2263;54.654;9.410;2022-09-09T15:34:00;19.20;82.70
4501;DHT22;2263;54.654;9.410;2022-09-09T15:36:43;19.20;82.30
4501;DHT22;2263;54.654;9.410;2022-09-09T15:39:12;19.20;81.90
4501;DHT22;2263;54.654;9.410;2022-09-09T15:41:46;19.10;82.90
4501;DHT22;2263;54.654;9.410;2022-09-09T15:44:15;19.20;82.50
4501;DHT22;2263;54.654;9.410;2022-09-09T15:46:44;19.20;81.90
4501;DHT22;2263;54.654;9.410;2022-09-09T15:49:17;19.20;81.80
4501;DHT22;2263;54.654;9.410;2022-09-09T15:51:47;19.30;81.40
4501;DHT22;2263;54.654;9.410;2022-09-09T15:54:18;19.30;81.20
4501;DHT22;2263;54.654;9.410;2022-09-09T15:56:57;19.40;81.00
4501;DHT22;2263;54.654;9.410;2022-09-09T15:59:25;19.40;80.70
4501;DHT22;2263;54.654;9.410;2022-09-09T16:01:53;19.50;80.70
4501;DHT22;2263;54.654;9.410;2022-09-09T16:04:23;19.50;80.70
4501;DHT22;2263;54.654;9.410;2022-09-09T16:06:52;19.50;80.60
4501;DHT22;2263;54.654;9.410;2022-09-09T16:09:20;19.60;80.70
4501;DHT22;2263;54.654;9.410;2022-09-09T16:11:48;19.60;80.70
4501;DHT22;2263;54.654;9.410;2022-09-09T16:14:15;19.60;80.70
4501;DHT22;2263;54.654;9.410;2022-09-09T16:16:43;19.60;80.80
4501;DHT22;2263;54.654;9.410;2022-09-09T16:19:12;19.60;80.90
4501;DHT22;2263;54.654;9.410;2022-09-09T16:21:45;19.60;80.90
4501;DHT22;2263;54.654;9.410;2022-09-09T16:24:16;19.60;80.90
4501;DHT22;2263;54.654;9.410;2022-09-09T16:26:47;19.60;80.80
4501;DHT22;2263;54.654;9.410;2022-09-09T16:29:15;19.60;80.90
4501;DHT22;2263;54.654;9.410;2022-09-09T16:31:43;19.60;80.80
4501;DHT22;2263;54.654;9.410;2022-09-09T16:34:11;19.60;80.50
4501;DHT22;2263;54.654;9.410;2022-09-09T16:36:39;19.50;80.00
4501;DHT22;2263;54.654;9.410;2022-09-09T16:39:12;19.50;80.30
4501;DHT22;2263;54.654;9.410;2022-09-09T16:41:40;19.50;80.20
4501;DHT22;2263;54.654;9.410;2022-09-09T16:44:10;19.50;80.20
4501;DHT22;2263;54.654;9.410;2022-09-09T16:46:39;19.50;80.20
4501;DHT22;2263;54.654;9.410;2022-09-09T16:49:09;19.50;80.10
4501;DHT22;2263;54.654;9.410;2022-09-09T16:51:38;19.50;80.00
4501;DHT22;2263;54.654;9.410;2022-09-09T16:54:09;19.50;80.00
4501;DHT22;2263;54.654;9.410;2022-09-09T16:56:39;19.50;80.00
4501;DHT22;2263;54.654;9.410;2022-09-09T16:59:11;19.50;79.90
4501;DHT22;2263;54.654;9.410;2022-09-09T17:01:40;19.40;79.70
4501;DHT22;2263;54.654;9.410;2022-09-09T17:04:11;19.50;79.80
4501;DHT22;2263;54.654;9.410;2022-09-09T17:06:40;19.40;79.70
4501;DHT22;2263;54.654;9.410;2022-09-09T17:09:10;19.40;79.60
4501;DHT22;2263;54.654;9.410;2022-09-09T17:11:38;19.40;79.70
4501;DHT22;2263;54.654;9.410;2022-09-09T17:14:07;19.40;79.60
4501;DHT22;2263;54.654;9.410;2022-09-09T17:16:36;19.40;79.60
4501;DHT22;2263;54.654;9.410;2022-09-09T17:19:04;19.40;79.60
4501;DHT22;2263;54.654;9.410;2022-09-09T17:21:32;19.40;79.60
4501;DHT22;2263;54.654;9.410;2022-09-09T17:23:59;19.40;79.50
4501;DHT22;2263;54.654;9.410;2022-09-09T17:26:29;19.40;79.60
4501;DHT22;2263;54.654;9.410;2022-09-09T17:28:57;19.40;79.50
4501;DHT22;2263;54.654;9.410;2022-09-09T17:31:27;19.30;79.40
4501;DHT22;2263;54.654;9.410;2022-09-09T17:33:54;19.30;79.40
4501;DHT22;2263;54.654;9.410;2022-09-09T17:36:40;19.40;79.50
4501;DHT22;2263;54.654;9.410;2022-09-09T17:39:07;19.40;79.60
4501;DHT22;2263;54.654;9.410;2022-09-09T17:41:37;19.30;79.40
4501;DHT22;2263;54.654;9.410;2022-09-09T17:44:05;19.30;79.30
4501;DHT22;2263;54.654;9.410;2022-09-09T17:46:42;19.30;79.30
4501;DHT22;2263;54.654;9.410;2022-09-09T17:49:12;19.30;79.30
4501;DHT22;2263;54.654;9.410;2022-09-09T17:51:40;19.30;79.30
4501;DHT22;2263;54.654;9.410;2022-09-09T17:54:16;19.30;79.30
4501;DHT22;2263;54.654;9.410;2022-09-09T17:56:46;19.30;79.20
4501;DHT22;2263;54.654;9.410;2022-09-09T17:59:15;19.30;79.10
4501;DHT22;2263;54.654;9.410;2022-09-09T18:01:46;19.30;79.10
4501;DHT22;2263;54.654;9.410;2022-09-09T18:04:15;19.30;79.10
4501;DHT22;2263;54.654;9.410;2022-09-09T18:06:45;19.30;79.10
4501;DHT22;2263;54.654;9.410;2022-09-09T18:09:17;19.20;78.90
4501;DHT22;2263;54.654;9.410;2022-09-09T18:11:47;19.30;79.00
4501;DHT22;2263;54.654;9.410;2022-09-09T18:14:17;19.30;79.00
4501;DHT22;2263;54.654;9.410;2022-09-09T18:16:47;19.30;79.00
4501;DHT22;2263;54.654;9.410;2022-09-09T18:19:17;19.20;78.80
4501;DHT22;2263;54.654;9.410;2022-09-09T18:21:46;19.20;78.80
4501;DHT22;2263;54.654;9.410;2022-09-09T18:24:14;19.20;78.80
4501;DHT22;2263;54.654;9.410;2022-09-09T18:26:44;19.20;78.70
4501;DHT22;2263;54.654;9.410;2022-09-09T18:29:15;19.20;78.70
4501;DHT22;2263;54.654;9.410;2022-09-09T18:31:43;19.20;78.70
4501;DHT22;2263;54.654;9.410;2022-09-09T18:34:12;19.20;78.60
4501;DHT22;2263;54.654;9.410;2022-09-09T18:36:45;19.20;78.60
4501;DHT22;2263;54.654;9.410;2022-09-09T18:39:15;19.20;78.60
4501;DHT22;2263;54.654;9.410;2022-09-09T18:41:46;19.20;78.60
4501;DHT22;2263;54.654;9.410;2022-09-09T18:44:16;19.20;78.60
4501;DHT22;2263;54.654;9.410;2022-09-09T18:46:44;19.10;78.40
4501;DHT22;2263;54.654;9.410;2022-09-09T18:49:12;19.10;78.40
4501;DHT22;2263;54.654;9.410;2022-09-09T18:51:43;19.10;78.40